createdAt,value
2022-11-10T00:07:33.824Z,101267.81
2022-11-10T00:17:36.182Z,101278.16
2022-11-10T00:27:37.933Z,101293.63
2022-11-10T00:37:39.272Z,101297.00
2022-11-10T00:47:40.610Z,101303.06
2022-11-10T00:57:41.976Z,101309.03
2022-11-10T01:07:43.318Z,101327.94
2022-11-10T01:17:44.650Z,101325.28
2022-11-10T01:27:46.107Z,101351.97
2022-11-10T01:37:47.438Z,101358.84
2022-11-10T01:48:01.998Z,101376.09
2022-11-10T01:58:04.357Z,101374.31
2022-11-10T02:08:06.539Z,101374.31
2022-11-10T02:18:08.023Z,101404.41
2022-11-10T02:28:09.455Z,101396.59
2022-11-10T02:38:10.952Z,101395.72
2022-11-10T02:48:14.810Z,101403.44
2022-11-10T02:58:16.190Z,101423.22
2022-11-10T03:08:17.848Z,101420.63
2022-11-10T03:18:19.186Z,101426.63
2022-11-10T03:28:20.552Z,101421.47
2022-11-10T03:38:21.912Z,101463.53
2022-11-10T03:48:23.248Z,101480.84
2022-11-10T03:58:24.574Z,101491.19
2022-11-10T04:08:44.371Z,101505.88
2022-11-10T04:18:45.684Z,101515.25
2022-11-10T04:28:48.621Z,101522.16
2022-11-10T04:38:50.551Z,101540.13
2022-11-10T04:48:53.053Z,101561.50
2022-11-10T04:58:54.902Z,101575.28
2022-11-10T05:08:56.232Z,101590.72
2022-11-10T05:18:58.186Z,101610.50
2022-11-10T05:28:59.551Z,101621.72
2022-11-10T05:39:00.877Z,101631.97
2022-11-10T05:49:02.854Z,101631.91
2022-11-10T05:59:04.306Z,101629.25
2022-11-10T06:09:05.619Z,101643.78
2022-11-10T06:19:07.085Z,101653.22
2022-11-10T06:29:08.421Z,101667.66
2022-11-10T06:39:09.849Z,101699.44
2022-11-10T06:49:11.188Z,101706.38
2022-11-10T06:59:12.523Z,101722.78
2022-11-10T07:09:14.767Z,101757.06
2022-11-10T07:19:16.100Z,101770.09
2022-11-10T07:29:17.433Z,101788.22
2022-11-10T07:39:18.766Z,101789.09
2022-11-10T07:49:20.104Z,101807.34
2022-11-10T07:59:21.466Z,101826.38
2022-11-10T08:09:22.803Z,101844.72
2022-11-10T08:19:24.806Z,101856.03
2022-11-10T08:29:26.144Z,101864.78
2022-11-10T08:39:38.684Z,101874.53
2022-11-10T08:49:40.807Z,101875.66
2022-11-10T08:59:42.135Z,101889.78
2022-11-10T09:09:46.605Z,101876.28
2022-11-10T09:19:54.527Z,101889.56
2022-11-10T09:29:55.916Z,101903.31
2022-11-10T09:40:01.074Z,101924.38
2022-11-10T09:50:06.549Z,101924.47
2022-11-10T10:00:14.039Z,101944.53
2022-11-10T10:10:28.370Z,101950.00
2022-11-10T10:20:49.472Z,101961.50
2022-11-10T10:30:51.144Z,101951.69
2022-11-10T10:40:56.661Z,101950.97
2022-11-10T10:50:58.001Z,101956.34
2022-11-10T11:01:07.463Z,101971.34
2022-11-10T11:11:11.070Z,101987.84
2022-11-10T11:21:34.858Z,101987.97
2022-11-10T11:31:48.446Z,101990.69
2022-11-10T11:42:06.931Z,101996.38
2022-11-10T11:52:27.539Z,102016.19
2022-11-10T12:02:57.389Z,102021.47
2022-11-10T12:13:10.734Z,102021.69
2022-11-10T12:23:38.379Z,102033.69
2022-11-10T12:33:48.034Z,102039.09
2022-11-10T12:44:06.127Z,102049.50
2022-11-10T12:54:16.612Z,102068.66
2022-11-10T13:04:20.476Z,102049.66
2022-11-10T13:14:28.585Z,102055.75
2022-11-10T13:24:42.239Z,102056.66
2022-11-10T13:34:45.913Z,102074.03
2022-11-10T13:44:47.681Z,102065.38
2022-11-10T13:54:48.998Z,102068.91
2022-11-10T14:04:50.461Z,102067.16
2022-11-10T14:15:14.943Z,102061.09
2022-11-10T14:25:26.653Z,102055.03
2022-11-10T14:35:30.687Z,102075.84
2022-11-10T14:45:32.010Z,102067.09
2022-11-10T14:55:36.023Z,102078.34
2022-11-10T15:05:38.567Z,102093.91
2022-11-10T15:15:41.324Z,102099.94
2022-11-10T15:25:42.747Z,102106.81
2022-11-10T15:35:44.125Z,102091.16
2022-11-10T15:45:53.326Z,102089.34
2022-11-10T15:55:54.676Z,102116.16
2022-11-10T16:05:56.038Z,102129.91
2022-11-10T16:15:59.376Z,102156.69
2022-11-10T16:26:04.127Z,102159.13
2022-11-10T16:36:05.920Z,102165.16
2022-11-10T16:46:18.382Z,102167.53
2022-11-10T16:56:21.362Z,102186.41
2022-11-10T17:06:25.535Z,102190.63
2022-11-10T17:16:33.770Z,102198.41
2022-11-10T17:26:35.240Z,102213.84
2022-11-10T17:36:36.856Z,102234.47
2022-11-10T17:46:38.213Z,102247.38
2022-11-10T17:56:39.567Z,102250.78
2022-11-10T18:06:41.021Z,102242.88
2022-11-10T18:16:42.352Z,102240.19
2022-11-10T18:26:43.768Z,102257.31
2022-11-10T18:36:45.113Z,102267.63
2022-11-10T18:46:48.255Z,102278.72
2022-11-10T18:56:50.772Z,102297.59
2022-11-10T19:06:52.169Z,102284.38
2022-11-10T19:16:53.554Z,102287.72
2022-11-10T19:26:54.998Z,102285.91
2022-11-10T19:36:56.352Z,102271.78
2022-11-10T19:46:57.723Z,102263.91
2022-11-10T19:56:59.276Z,102289.53
2022-11-10T20:07:19.000Z,102290.31
2022-11-10T20:17:20.393Z,102290.84
2022-11-10T20:27:21.762Z,102286.22
2022-11-10T20:37:23.109Z,102322.34
2022-11-10T20:47:25.875Z,102328.19
2022-11-10T20:57:28.217Z,102341.84
2022-11-10T21:07:29.575Z,102338.97
2022-11-10T21:17:31.059Z,102341.50
2022-11-10T21:27:32.523Z,102351.63
2022-11-10T21:37:33.844Z,102359.84
2022-11-10T21:47:35.554Z,102363.19
2022-11-10T21:57:36.877Z,102360.25
2022-11-10T22:07:38.566Z,102364.38
2022-11-10T22:17:58.265Z,102366.84
2022-11-10T22:27:59.610Z,102376.06
2022-11-10T22:38:05.228Z,102374.34
2022-11-10T22:48:26.040Z,102379.16
2022-11-10T22:58:27.404Z,102386.00
2022-11-10T23:08:29.172Z,102403.72
2022-11-10T23:18:30.673Z,102396.69
2022-11-10T23:28:33.173Z,102394.81
2022-11-10T23:38:36.524Z,102421.91
2022-11-10T23:48:40.163Z,102454.16
2022-11-10T23:58:41.519Z,102459.75
